Time;durP1;ratioP1;P1;durP2;ratioP2;P2;SDS_P1;SDS_P2;PMS_P1;PMS_P2;Temp;Humidity;BMP_temperature;BMP_pressure;BME280_temperature;BME280_humidity;BME280_pressure;Samples;Min_cycle;Max_cycle;Signal;HPM_P1;HPM_P2
2022/08/01 00:01:53;;;;;;;2.33;0.80;;;19.20;99.90;;;;;;4130231;28;20152;-78
2022/08/01 00:03:54;;;;;;;0.60;0.55;;;19.20;99.90;;;;;;4129195;28;20805;-66
2022/08/01 00:05:55;;;;;;;0.52;0.52;;;19.10;99.90;;;;;;4129867;28;20046;-71
2022/08/01 00:07:56;;;;;;;0.98;0.60;;;19.10;99.90;;;;;;4128657;28;20043;-64
2022/08/01 00:09:58;;;;;;;0.93;0.85;;;19.00;99.90;;;;;;4129987;28;20410;-64
2022/08/01 00:11:59;;;;;;;0.75;0.52;;;19.00;99.90;;;;;;4128718;28;20471;-63
2022/08/01 00:14:00;;;;;;;0.50;0.50;;;18.90;99.90;;;;;;4129662;28;20046;-63
2022/08/01 00:16:01;;;;;;;1.05;0.80;;;18.90;99.90;;;;;;4132908;28;20014;-62
2022/08/01 00:18:02;;;;;;;0.88;0.88;;;18.80;99.90;;;;;;4144979;28;20440;-63
2022/08/01 00:20:06;;;;;;;1.55;0.70;;;18.90;99.90;;;;;;4145307;28;20069;-63
2022/08/01 00:22:08;;;;;;;0.80;0.80;;;18.80;99.90;;;;;;4144526;28;20108;-74
2022/08/01 00:24:09;;;;;;;1.63;0.82;;;18.80;99.90;;;;;;4145337;28;20042;-76
2022/08/01 00:26:10;;;;;;;0.80;0.70;;;18.80;99.90;;;;;;4144836;28;20042;-63
2022/08/01 00:28:13;;;;;;;3.20;0.85;;;18.80;99.90;;;;;;4145816;28;20037;-71
2022/08/01 00:30:14;;;;;;;1.33;1.00;;;18.80;99.90;;;;;;4142761;28;20099;-71
2022/08/01 00:32:15;;;;;;;1.88;1.00;;;18.70;99.90;;;;;;4145897;28;20025;-70
2022/08/01 00:34:16;;;;;;;0.70;0.70;;;18.70;99.90;;;;;;4144672;28;20030;-65
2022/08/01 00:36:18;;;;;;;4.45;0.98;;;18.70;99.90;;;;;;4145889;28;20049;-65
2022/08/01 00:38:19;;;;;;;2.83;1.77;;;18.60;99.90;;;;;;4142884;28;20042;-63
2022/08/01 00:40:20;;;;;;;2.88;0.80;;;18.50;99.90;;;;;;4145835;28;20083;-67
2022/08/01 00:42:21;;;;;;;3.13;1.10;;;18.50;99.90;;;;;;4144924;28;20038;-67
2022/08/01 00:44:22;;;;;;;5.75;0.90;;;18.40;99.90;;;;;;4145630;28;20046;-72
2022/08/01 00:46:24;;;;;;;0.93;0.70;;;18.40;99.90;;;;;;4144530;28;20425;-67
2022/08/01 00:48:25;;;;;;;2.67;0.70;;;18.30;99.90;;;;;;4145170;28;20102;-64
2022/08/01 00:50:26;;;;;;;0.90;0.90;;;18.30;99.90;;;;;;4144860;28;20476;-63
2022/08/01 00:52:27;;;;;;;1.92;0.80;;;18.30;99.90;;;;;;4143413;28;20026;-62
2022/08/01 00:54:29;;;;;;;1.73;1.02;;;18.20;99.90;;;;;;4144096;28;20030;-70
2022/08/01 00:56:30;;;;;;;2.08;1.27;;;18.20;99.90;;;;;;4142399;28;20038;-63
2022/08/01 00:58:33;;;;;;;0.98;0.90;;;18.20;99.90;;;;;;4145745;28;20041;-63
2022/08/01 01:00:35;;;;;;;1.52;1.08;;;18.20;99.90;;;;;;4144597;28;20092;-64
2022/08/01 01:02:36;;;;;;;2.10;1.33;;;18.20;99.90;;;;;;4142933;28;20626;-64
2022/08/01 01:04:38;;;;;;;1.33;1.20;;;18.10;99.90;;;;;;4128216;28;20450;-62
2022/08/01 01:06:58;;;;;;;1.65;1.08;;;18.10;99.90;;;;;;4129313;28;20084;-74
2022/08/01 01:09:24;;;;;;;1.30;0.88;;;18.10;99.90;;;;;;4142031;28;20053;-64
2022/08/01 01:11:32;;;;;;;1.15;1.10;;;18.10;99.90;;;;;;4145332;28;20474;-64
2022/08/01 01:13:43;;;;;;;1.00;1.00;;;18.00;99.90;;;;;;4144352;28;20418;-63
2022/08/01 01:15:49;;;;;;;1.25;1.10;;;18.00;99.90;;;;;;4145319;28;20080;-74
2022/08/01 01:18:01;;;;;;;2.92;0.88;;;18.00;99.90;;;;;;4144322;28;20037;-77
2022/08/01 01:20:05;;;;;;;1.38;0.90;;;18.00;99.90;;;;;;4145329;28;20061;-65
2022/08/01 01:22:43;;;;;;;10.30;2.08;;;18.10;99.90;;;;;;4140335;28;20454;-71
2022/08/01 01:25:02;;;;;;;4.97;1.20;;;18.10;99.90;;;;;;4128603;28;20046;-63
2022/08/01 01:27:33;;;;;;;6.22;2.50;;;18.10;99.90;;;;;;4128381;28;20084;-76
2022/08/01 01:29:52;;;;;;;8.80;2.75;;;18.10;99.90;;;;;;4128023;28;20096;-72
2022/08/01 01:32:05;;;;;;;1.65;1.55;;;18.10;99.90;;;;;;4142649;28;20034;-72
2022/08/01 01:34:09;;;;;;;2.17;1.52;;;18.10;99.90;;;;;;4139356;28;20034;-75
2022/08/01 01:36:13;;;;;;;3.55;2.72;;;18.00;99.90;;;;;;4132113;28;20038;-66
2022/08/01 01:38:20;;;;;;;2.58;2.38;;;17.90;99.90;;;;;;4131420;28;20553;-71
2022/08/01 01:40:24;;;;;;;2.40;2.20;;;17.90;99.90;;;;;;4131896;28;20101;-72
2022/08/01 01:42:26;;;;;;;3.90;3.42;;;17.90;99.90;;;;;;4131307;28;20069;-74
2022/08/01 01:44:29;;;;;;;4.07;3.70;;;17.80;99.90;;;;;;4132502;28;20674;-66
2022/08/01 01:46:31;;;;;;;3.03;2.65;;;17.80;99.90;;;;;;4131569;28;20081;-65
2022/08/01 01:48:34;;;;;;;9.93;4.70;;;17.80;99.90;;;;;;4131047;28;20030;-78
2022/08/01 01:50:37;;;;;;;4.63;3.58;;;17.80;99.90;;;;;;4139675;28;20038;-76
2022/08/01 01:52:40;;;;;;;3.88;3.22;;;17.80;99.90;;;;;;4146836;28;20042;-66
2022/08/01 01:54:47;;;;;;;4.40;2.83;;;17.80;99.90;;;;;;4148235;28;20084;-72
2022/08/01 01:56:51;;;;;;;5.65;4.00;;;17.80;99.90;;;;;;4146891;28;20080;-68
2022/08/01 01:58:57;;;;;;;3.75;3.08;;;17.80;99.90;;;;;;4142709;28;20100;-78
2022/08/01 02:00:59;;;;;;;5.65;4.15;;;17.70;99.90;;;;;;4131286;28;20074;-65
2022/08/01 02:03:07;;;;;;;2.78;2.15;;;17.70;99.90;;;;;;4132101;28;20046;-73
2022/08/01 02:05:10;;;;;;;1.92;1.05;;;17.80;99.90;;;;;;4131470;28;20050;-66
2022/08/01 02:07:16;;;;;;;0.93;0.90;;;17.80;99.90;;;;;;4132924;28;20495;-64
2022/08/01 02:09:20;;;;;;;2.05;1.70;;;17.80;99.90;;;;;;4130751;28;20042;-75
2022/08/01 02:11:22;;;;;;;1.40;0.82;;;17.80;99.90;;;;;;4131664;28;20537;-69
2022/08/01 02:13:23;;;;;;;2.47;0.80;;;17.80;99.90;;;;;;4142136;28;20022;-64
2022/08/01 02:15:26;;;;;;;0.95;0.70;;;17.90;99.90;;;;;;4148040;28;20065;-69
2022/08/01 02:17:28;;;;;;;0.95;0.95;;;17.90;99.90;;;;;;4146521;28;20100;-64
2022/08/01 02:19:30;;;;;;;0.77;0.60;;;18.00;99.90;;;;;;4147573;28;20062;-64
2022/08/01 02:22:01;;;;;;;1.48;0.65;;;18.10;99.90;;;;;;4145396;28;20430;-75
2022/08/01 02:24:13;;;;;;;0.80;0.60;;;18.20;99.90;;;;;;4147573;28;20030;-65
2022/08/01 02:26:17;;;;;;;0.82;0.70;;;18.20;99.90;;;;;;4146798;28;20119;-63
2022/08/01 02:28:28;;;;;;;0.70;0.60;;;18.20;99.90;;;;;;4137760;28;20054;-64
2022/08/01 02:30:36;;;;;;;2.38;0.60;;;18.10;99.90;;;;;;4130550;28;20050;-66
2022/08/01 02:33:10;;;;;;;3.08;0.70;;;18.10;99.90;;;;;;4131326;28;20585;-73
2022/08/01 02:35:19;;;;;;;2.05;0.70;;;18.00;99.90;;;;;;4130538;28;20367;-64
2022/08/01 02:37:21;;;;;;;1.50;1.33;;;18.10;99.90;;;;;;4131521;28;20096;-63
2022/08/01 02:39:26;;;;;;;2.90;0.85;;;18.10;99.90;;;;;;4130156;28;20046;-64
2022/08/01 02:41:28;;;;;;;0.75;0.75;;;18.10;99.90;;;;;;4131284;28;20438;-64
2022/08/01 02:43:32;;;;;;;3.83;0.70;;;18.10;99.90;;;;;;4139122;28;20038;-72
2022/08/01 02:45:37;;;;;;;0.70;0.70;;;18.00;99.90;;;;;;4147116;28;20560;-72
2022/08/01 02:47:39;;;;;;;0.65;0.65;;;18.00;99.90;;;;;;4137738;28;20444;-76
2022/08/01 02:49:44;;;;;;;1.02;0.50;;;18.10;99.90;;;;;;4130980;28;20042;-78
2022/08/01 02:51:47;;;;;;;1.23;0.80;;;18.10;99.90;;;;;;4130023;28;20072;-74
2022/08/01 02:53:51;;;;;;;2.47;0.70;;;18.10;99.90;;;;;;4141544;28;20093;-73
2022/08/01 02:55:54;;;;;;;1.00;0.90;;;18.10;99.90;;;;;;4146767;28;20038;-76
2022/08/01 02:57:57;;;;;;;1.73;1.63;;;18.10;99.90;;;;;;4146741;28;20050;-66
2022/08/01 02:59:59;;;;;;;2.25;0.80;;;18.10;99.90;;;;;;4146871;28;20042;-69
2022/08/01 03:02:03;;;;;;;1.02;0.75;;;18.00;99.90;;;;;;4130286;28;20446;-75
2022/08/01 03:04:05;;;;;;;0.68;0.65;;;18.00;99.90;;;;;;4131432;28;20446;-62
2022/08/01 03:06:07;;;;;;;1.25;0.82;;;17.90;99.90;;;;;;4129364;28;20042;-64
2022/08/01 03:08:09;;;;;;;2.97;1.30;;;17.90;99.90;;;;;;4131129;28;20122;-63
2022/08/01 03:10:13;;;;;;;1.42;1.05;;;17.90;99.90;;;;;;4129838;28;20042;-63
2022/08/01 03:12:25;;;;;;;1.20;0.80;;;17.90;99.90;;;;;;4130665;28;20069;-63
2022/08/01 03:14:29;;;;;;;1.05;0.77;;;17.80;99.90;;;;;;4130453;28;20042;-67
2022/08/01 03:16:33;;;;;;;1.98;0.90;;;17.70;99.90;;;;;;4146981;28;20846;-69
2022/08/01 03:18:36;;;;;;;1.42;0.90;;;17.70;99.90;;;;;;4145467;28;20045;-66
2022/08/01 03:20:37;;;;;;;1.73;0.80;;;17.70;99.90;;;;;;4146846;28;20423;-64
2022/08/01 03:22:40;;;;;;;1.27;0.95;;;17.70;99.90;;;;;;4145616;28;20104;-68
2022/08/01 03:24:44;;;;;;;0.88;0.65;;;17.70;99.90;;;;;;4146603;28;20033;-69
2022/08/01 03:26:46;;;;;;;0.60;0.60;;;17.70;99.90;;;;;;4145544;28;20063;-63
2022/08/01 03:28:48;;;;;;;2.35;0.95;;;17.60;99.90;;;;;;4146412;28;20034;-72
2022/08/01 03:30:50;;;;;;;1.58;0.85;;;17.70;99.90;;;;;;4136174;28;20038;-63
2022/08/01 03:32:51;;;;;;;1.33;1.13;;;17.60;99.90;;;;;;4130169;28;20046;-76
2022/08/01 03:34:53;;;;;;;1.05;0.95;;;17.70;99.90;;;;;;4129807;28;20027;-64
2022/08/01 03:37:05;;;;;;;0.98;0.77;;;17.70;99.90;;;;;;4129271;28;20034;-63
2022/08/01 03:39:09;;;;;;;1.67;0.80;;;17.60;99.90;;;;;;4129644;28;20076;-63
2022/08/01 03:41:15;;;;;;;0.98;0.85;;;17.60;99.90;;;;;;4129755;28;20046;-68
2022/08/01 03:43:28;;;;;;;0.95;0.80;;;17.60;99.90;;;;;;4129766;28;20042;-67
2022/08/01 03:45:38;;;;;;;2.03;1.10;;;17.60;99.90;;;;;;4133723;28;20046;-62
2022/08/01 03:47:43;;;;;;;4.22;1.10;;;17.60;99.90;;;;;;4129465;28;20089;-63
2022/08/01 03:49:47;;;;;;;1.40;1.30;;;17.70;99.90;;;;;;4129065;28;20042;-64
2022/08/01 03:51:49;;;;;;;2.45;0.95;;;17.60;99.90;;;;;;4129494;28;20430;-66
2022/08/01 03:53:53;;;;;;;2.53;1.00;;;17.60;99.90;;;;;;4128919;28;20026;-62
2022/08/01 03:55:58;;;;;;;2.25;0.95;;;17.60;99.90;;;;;;4129093;28;20034;-64
2022/08/01 03:58:01;;;;;;;0.80;0.80;;;17.60;99.90;;;;;;4128896;28;20422;-73
2022/08/01 04:00:07;;;;;;;4.45;1.05;;;17.60;99.90;;;;;;4130222;28;20046;-73
2022/08/01 04:02:08;;;;;;;1.38;1.10;;;17.60;99.90;;;;;;4126562;28;20050;-61
2022/08/01 04:04:09;;;;;;;1.45;1.13;;;17.60;99.90;;;;;;4130100;28;20035;-73
2022/08/01 04:06:13;;;;;;;1.35;1.15;;;17.50;99.90;;;;;;4128269;28;20040;-66
2022/08/01 04:08:14;;;;;;;1.75;1.00;;;17.50;99.90;;;;;;4129839;28;20081;-63
2022/08/01 04:10:16;;;;;;;1.00;1.00;;;17.50;99.90;;;;;;4128602;28;20092;-69
2022/08/01 04:12:18;;;;;;;1.23;0.88;;;17.50;99.90;;;;;;4129996;28;20034;-69
2022/08/01 04:14:19;;;;;;;0.65;0.63;;;17.40;99.90;;;;;;4128420;28;20553;-65
2022/08/01 04:16:21;;;;;;;1.95;0.98;;;17.30;99.90;;;;;;4131325;28;20100;-71
2022/08/01 04:18:22;;;;;;;0.88;0.88;;;17.30;99.90;;;;;;4143380;28;20038;-64
2022/08/01 04:20:24;;;;;;;0.80;0.60;;;17.30;99.90;;;;;;4126445;28;20038;-67
2022/08/01 04:22:25;;;;;;;1.30;1.20;;;17.30;99.90;;;;;;4112567;28;20565;-67
2022/08/01 04:24:29;;;;;;;1.08;0.98;;;17.20;99.90;;;;;;4112707;28;20027;-69
2022/08/01 04:26:34;;;;;;;1.00;0.90;;;17.10;99.90;;;;;;4112863;28;20475;-74
2022/08/01 04:28:38;;;;;;;0.73;0.60;;;17.10;99.90;;;;;;4112730;28;20570;-69
2022/08/01 04:30:40;;;;;;;1.42;0.80;;;17.10;99.90;;;;;;4112999;28;20070;-71
2022/08/01 04:32:44;;;;;;;1.05;1.02;;;17.00;99.90;;;;;;4114648;28;20082;-67
2022/08/01 04:34:47;;;;;;;1.63;1.08;;;17.00;99.90;;;;;;4129112;28;20030;-66
2022/08/01 04:36:51;;;;;;;1.25;1.15;;;17.00;99.90;;;;;;4127976;28;20097;-72
2022/08/01 04:38:59;;;;;;;1.27;1.17;;;17.00;99.90;;;;;;4129186;28;20034;-63
2022/08/01 04:41:02;;;;;;;1.50;1.40;;;17.00;99.90;;;;;;4127950;28;20475;-65
2022/08/01 04:43:03;;;;;;;4.32;1.48;;;17.00;99.90;;;;;;4129293;28;20593;-69
2022/08/01 04:45:08;;;;;;;2.42;1.30;;;17.00;99.90;;;;;;4139878;28;20084;-72
2022/08/01 04:47:10;;;;;;;2.40;1.42;;;17.00;99.90;;;;;;4145294;28;20100;-69
2022/08/01 04:49:14;;;;;;;1.10;1.00;;;17.00;99.90;;;;;;4127816;28;20069;-63
2022/08/01 04:51:16;;;;;;;1.23;0.77;;;17.10;99.90;;;;;;4128331;28;20100;-64
2022/08/01 04:53:21;;;;;;;0.73;0.73;;;17.10;99.90;;;;;;4128013;28;20047;-66
2022/08/01 04:55:22;;;;;;;1.55;0.80;;;17.10;99.90;;;;;;4122341;28;20026;-63
2022/08/01 04:57:23;;;;;;;0.73;0.73;;;17.10;99.90;;;;;;4112103;28;20078;-70
2022/08/01 04:59:40;;;;;;;5.90;0.70;;;17.00;99.90;;;;;;4122202;28;20438;-64
2022/08/01 05:01:41;;;;;;;3.70;1.10;;;17.10;99.90;;;;;;4127985;28;20459;-62
2022/08/01 05:03:43;;;;;;;1.80;0.80;;;17.10;99.90;;;;;;4128940;28;20090;-76
2022/08/01 05:05:45;;;;;;;0.73;0.55;;;17.20;99.90;;;;;;4142195;28;20046;-63
2022/08/01 05:07:46;;;;;;;0.98;0.90;;;17.20;99.90;;;;;;4130171;28;20080;-74
2022/08/01 05:09:47;;;;;;;5.88;4.90;;;17.20;99.90;;;;;;4129092;28;20034;-72
2022/08/01 05:11:48;;;;;;;3.80;2.10;;;17.20;99.90;;;;;;4128205;28;20054;-66
2022/08/01 05:13:51;;;;;;;7.07;4.43;;;17.20;99.90;;;;;;4132992;28;20445;-76
2022/08/01 05:15:52;;;;;;;5.05;0.95;;;17.20;99.90;;;;;;4132792;28;20038;-63
2022/08/01 05:17:54;;;;;;;1.23;0.98;;;17.20;99.90;;;;;;4128442;28;20088;-66
2022/08/01 05:19:55;;;;;;;1.25;1.05;;;17.20;99.90;;;;;;4127476;28;20043;-62
2022/08/01 05:21:56;;;;;;;2.15;1.20;;;17.20;99.90;;;;;;4128961;28;20096;-62
2022/08/01 05:23:57;;;;;;;1.88;1.17;;;17.30;99.90;;;;;;4127699;28;20027;-61
2022/08/01 05:25:58;;;;;;;0.80;0.80;;;17.30;99.90;;;;;;4128767;28;20034;-62
2022/08/01 05:28:00;;;;;;;0.98;0.68;;;17.40;99.90;;;;;;4127810;28;20080;-70
2022/08/01 05:30:01;;;;;;;2.08;0.95;;;17.40;99.90;;;;;;4128699;28;20097;-71
2022/08/01 05:32:02;;;;;;;4.32;0.80;;;17.30;99.90;;;;;;4128675;28;20491;-62
2022/08/01 05:34:03;;;;;;;2.95;1.38;;;17.30;99.90;;;;;;4128897;28;20479;-68
2022/08/01 05:36:05;;;;;;;0.93;0.82;;;17.30;99.90;;;;;;4128417;28;20030;-62
2022/08/01 05:38:06;;;;;;;1.17;0.93;;;17.30;99.90;;;;;;4128311;28;20069;-65
2022/08/01 05:40:08;;;;;;;0.80;0.60;;;17.30;99.90;;;;;;4128197;28;20022;-62
2022/08/01 05:42:09;;;;;;;2.67;0.88;;;17.30;99.90;;;;;;4127400;28;20042;-63
2022/08/01 05:44:10;;;;;;;1.00;0.50;;;17.40;99.90;;;;;;4128230;28;20023;-63
2022/08/01 05:46:12;;;;;;;0.52;0.52;;;17.40;99.90;;;;;;4127439;28;20042;-70
2022/08/01 05:48:13;;;;;;;0.70;0.70;;;17.50;99.90;;;;;;4128938;28;20081;-74
2022/08/01 05:50:14;;;;;;;0.65;0.65;;;17.50;99.90;;;;;;4127389;28;20487;-63
2022/08/01 05:52:15;;;;;;;1.00;0.52;;;17.50;99.90;;;;;;4128649;28;20081;-69
2022/08/01 05:54:16;;;;;;;0.95;0.80;;;17.50;99.90;;;;;;4127444;28;20319;-64
2022/08/01 05:56:18;;;;;;;2.75;0.90;;;17.50;99.90;;;;;;4128631;28;20487;-63
2022/08/01 05:58:19;;;;;;;1.83;0.85;;;17.50;99.90;;;;;;4127425;28;20026;-69
2022/08/01 06:00:21;;;;;;;1.55;0.55;;;17.50;99.90;;;;;;4128674;28;20070;-74
2022/08/01 06:02:22;;;;;;;0.85;0.85;;;17.60;99.90;;;;;;4127315;28;20474;-75
2022/08/01 06:04:23;;;;;;;0.70;0.70;;;17.60;99.90;;;;;;4128718;28;20038;-70
2022/08/01 06:06:24;;;;;;;2.25;0.63;;;17.60;99.90;;;;;;4127554;28;20453;-66
2022/08/01 06:08:25;;;;;;;1.10;0.80;;;17.60;99.90;;;;;;4128066;28;20038;-64
2022/08/01 06:10:26;;;;;;;0.70;0.70;;;17.70;99.90;;;;;;4127670;28;20430;-68
2022/08/01 06:12:28;;;;;;;3.45;0.70;;;17.70;99.90;;;;;;4127539;28;20433;-71
2022/08/01 06:14:29;;;;;;;1.80;0.70;;;17.70;99.90;;;;;;4128411;28;20068;-72
2022/08/01 06:16:30;;;;;;;0.85;0.60;;;17.80;99.90;;;;;;4127488;28;20088;-71
2022/08/01 06:18:31;;;;;;;7.53;1.77;;;17.80;99.90;;;;;;4128913;28;20038;-63
2022/08/01 06:20:32;;;;;;;3.20;2.15;;;17.90;99.90;;;;;;4130162;28;20043;-63
2022/08/01 06:22:34;;;;;;;0.98;0.80;;;17.90;99.90;;;;;;4131364;28;20605;-77
2022/08/01 06:24:35;;;;;;;1.02;0.90;;;18.10;99.90;;;;;;4130315;28;20490;-74
2022/08/01 06:26:36;;;;;;;0.68;0.50;;;18.10;99.90;;;;;;4131280;28;20050;-64
2022/08/01 06:28:38;;;;;;;0.40;0.40;;;18.10;99.90;;;;;;4130013;28;20034;-70
2022/08/01 06:30:39;;;;;;;0.60;0.60;;;18.20;99.90;;;;;;4131098;28;20089;-74
2022/08/01 06:32:41;;;;;;;0.82;0.73;;;18.20;99.90;;;;;;4130037;28;20038;-69
2022/08/01 06:34:42;;;;;;;1.10;0.70;;;18.20;99.90;;;;;;4131519;28;20035;-75
2022/08/01 06:36:43;;;;;;;0.93;0.50;;;18.30;99.90;;;;;;4130065;28;20506;-66
2022/08/01 06:38:44;;;;;;;1.60;0.88;;;18.30;99.90;;;;;;4130411;28;20085;-71
2022/08/01 06:40:45;;;;;;;1.08;0.80;;;18.40;99.90;;;;;;4130228;28;20018;-74
2022/08/01 06:42:47;;;;;;;0.60;0.60;;;18.50;99.90;;;;;;4130118;28;20085;-64
2022/08/01 06:44:48;;;;;;;0.88;0.77;;;18.50;99.90;;;;;;4130559;28;20092;-64
2022/08/01 06:46:49;;;;;;;0.52;0.52;;;18.40;99.90;;;;;;4129797;28;20140;-73
2022/08/01 06:48:50;;;;;;;0.70;0.70;;;18.40;99.90;;;;;;4130641;28;20081;-69
2022/08/01 06:51:07;;;;;;;0.70;0.70;;;18.50;99.90;;;;;;4129495;28;20077;-63
2022/08/01 06:53:08;;;;;;;0.70;0.70;;;18.50;99.90;;;;;;4130322;28;20030;-66
2022/08/01 06:55:10;;;;;;;0.98;0.68;;;18.60;99.90;;;;;;4129655;28;20495;-67
2022/08/01 06:57:11;;;;;;;0.90;0.90;;;18.70;99.90;;;;;;4130465;28;20092;-67
2022/08/01 06:59:12;;;;;;;1.20;0.68;;;18.80;99.90;;;;;;4129606;28;20034;-68
2022/08/01 07:01:13;;;;;;;1.75;0.90;;;18.90;99.90;;;;;;4130286;28;20026;-72
2022/08/01 07:03:14;;;;;;;0.88;0.70;;;19.00;99.90;;;;;;4129424;28;20474;-69
2022/08/01 07:05:16;;;;;;;1.00;0.75;;;19.10;99.90;;;;;;4130463;28;20026;-63
2022/08/01 07:07:17;;;;;;;0.70;0.70;;;19.20;99.90;;;;;;4129002;28;20030;-67
2022/08/01 07:09:18;;;;;;;0.80;0.50;;;19.30;99.90;;;;;;4130283;28;20038;-72
2022/08/01 07:11:21;;;;;;;0.75;0.75;;;19.30;99.90;;;;;;4129265;28;20421;-71
2022/08/01 07:13:24;;;;;;;1.27;0.80;;;19.40;99.90;;;;;;4130125;28;20050;-74
2022/08/01 07:15:26;;;;;;;1.67;0.88;;;19.50;99.90;;;;;;4129176;28;20061;-63
2022/08/01 07:17:27;;;;;;;2.92;0.85;;;19.60;99.90;;;;;;4129693;28;20439;-67
2022/08/01 07:19:28;;;;;;;1.15;0.70;;;19.70;99.90;;;;;;4129691;28;20049;-73
2022/08/01 07:21:29;;;;;;;0.93;0.65;;;19.80;99.90;;;;;;4129023;28;20038;-70
2022/08/01 07:23:31;;;;;;;2.22;0.80;;;19.90;99.90;;;;;;4130234;28;20046;-68
2022/08/01 07:25:32;;;;;;;2.53;0.50;;;19.90;99.90;;;;;;4129275;28;20499;-65
2022/08/01 07:27:34;;;;;;;0.80;0.80;;;19.90;99.90;;;;;;4130633;28;20541;-73
2022/08/01 07:29:35;;;;;;;2.13;0.52;;;19.90;99.90;;;;;;4128917;28;20043;-67
2022/08/01 07:31:36;;;;;;;1.63;0.60;;;20.00;99.90;;;;;;4129503;28;20038;-65
2022/08/01 07:33:37;;;;;;;0.98;0.45;;;20.00;99.90;;;;;;4128877;28;20042;-64
2022/08/01 07:35:40;;;;;;;1.00;0.70;;;20.10;99.90;;;;;;4130748;28;20039;-66
2022/08/01 07:37:41;;;;;;;0.55;0.55;;;20.00;99.90;;;;;;4128712;28;20068;-75
2022/08/01 07:39:42;;;;;;;1.42;0.60;;;20.00;99.90;;;;;;4130104;28;20038;-66
2022/08/01 07:41:43;;;;;;;2.53;0.75;;;20.00;99.90;;;;;;4128726;28;20034;-70
2022/08/01 07:43:44;;;;;;;0.88;0.57;;;19.90;99.90;;;;;;4129919;28;20089;-65
2022/08/01 07:45:46;;;;;;;1.00;0.80;;;19.80;99.90;;;;;;4129101;28;20116;-70
2022/08/01 07:47:49;;;;;;;10.65;1.02;;;19.70;99.90;;;;;;4128910;28;20050;-64
2022/08/01 07:49:50;;;;;;;1.35;0.45;;;19.70;99.90;;;;;;4129255;28;20046;-66
2022/08/01 07:51:52;;;;;;;1.35;0.30;;;19.60;99.90;;;;;;4129207;28;20046;-74
2022/08/01 07:53:53;;;;;;;2.22;0.57;;;19.60;99.90;;;;;;4129674;28;20486;-66
2022/08/01 07:55:54;;;;;;;0.93;0.63;;;19.50;99.90;;;;;;4128730;28;20077;-74
2022/08/01 07:57:55;;;;;;;1.15;0.50;;;19.50;99.90;;;;;;4129582;28;20414;-69
2022/08/01 07:59:56;;;;;;;0.95;0.60;;;19.50;99.90;;;;;;4128544;28;20035;-68
2022/08/01 08:01:58;;;;;;;0.30;0.30;;;19.50;99.90;;;;;;4129740;28;20097;-65
2022/08/01 08:03:59;;;;;;;2.50;0.98;;;19.50;99.90;;;;;;4127027;28;20062;-71
2022/08/01 08:06:00;;;;;;;1.17;0.50;;;19.40;99.90;;;;;;4130125;28;20058;-65
2022/08/01 08:08:05;;;;;;;1.42;0.45;;;19.40;99.90;;;;;;4128125;28;20101;-63
2022/08/01 08:10:07;;;;;;;0.50;0.40;;;19.40;99.90;;;;;;4129868;28;20073;-70
2022/08/01 08:12:08;;;;;;;0.95;0.43;;;19.40;99.90;;;;;;4128732;28;20038;-69
2022/08/01 08:14:10;;;;;;;4.68;0.30;;;19.40;99.90;;;;;;4129689;28;20050;-76
2022/08/01 08:16:11;;;;;;;1.00;0.40;;;19.40;99.90;;;;;;4127404;28;20423;-65
2022/08/01 08:18:12;;;;;;;1.77;0.70;;;19.50;99.90;;;;;;4128665;28;20117;-69
2022/08/01 08:20:13;;;;;;;1.77;0.35;;;19.50;99.90;;;;;;4128101;28;20081;-71
2022/08/01 08:22:14;;;;;;;1.73;0.35;;;19.60;99.90;;;;;;4128156;28;20088;-69
2022/08/01 08:24:23;;;;;;;2.05;0.45;;;19.70;99.90;;;;;;4128770;28;20038;-64
2022/08/01 08:26:25;;;;;;;0.60;0.40;;;19.80;99.90;;;;;;4127926;28;20061;-74
2022/08/01 08:28:26;;;;;;;1.65;0.40;;;20.00;99.90;;;;;;4128888;28;20442;-63
2022/08/01 08:30:27;;;;;;;1.60;0.50;;;20.00;99.90;;;;;;4128053;28;20089;-72
2022/08/01 08:32:28;;;;;;;0.30;0.30;;;20.10;99.90;;;;;;4128972;28;20081;-70
2022/08/01 08:34:29;;;;;;;0.85;0.30;;;20.20;99.90;;;;;;4127854;28;20077;-69
2022/08/01 08:36:31;;;;;;;0.30;0.30;;;20.30;99.90;;;;;;4129169;28;20030;-74
2022/08/01 08:38:32;;;;;;;2.00;0.90;;;20.30;99.90;;;;;;4127842;28;20089;-75
2022/08/01 08:40:35;;;;;;;2.70;0.80;;;20.50;99.90;;;;;;4128815;28;20081;-64
2022/08/01 08:42:40;;;;;;;2.70;0.70;;;20.60;99.90;;;;;;4127598;28;20043;-64
2022/08/01 08:44:42;;;;;;;0.40;0.40;;;20.80;99.90;;;;;;4129227;28;20113;-74
2022/08/01 08:46:50;;;;;;;0.43;0.35;;;21.10;99.90;;;;;;4127666;28;20510;-75
2022/08/01 08:48:52;;;;;;;0.32;0.32;;;21.40;99.90;;;;;;4128827;28;20100;-67
2022/08/01 08:50:54;;;;;;;1.45;0.30;;;21.60;99.90;;;;;;4127756;28;20034;-73
2022/08/01 08:52:59;;;;;;;0.30;0.30;;;21.90;99.90;;;;;;4128815;28;20034;-75
2022/08/01 08:55:00;;;;;;;1.50;0.28;;;22.10;99.90;;;;;;4128023;28;20046;-67
2022/08/01 08:57:01;;;;;;;1.23;0.75;;;22.20;99.90;;;;;;4128072;28;20077;-66
2022/08/01 08:59:03;;;;;;;1.48;1.00;;;22.50;99.90;;;;;;4128121;28;20150;-72
2022/08/01 09:01:08;;;;;;;0.85;0.40;;;22.60;99.90;;;;;;4128082;28;20189;-68
2022/08/01 09:03:09;;;;;;;0.38;0.38;;;22.70;99.90;;;;;;4128383;28;20054;-71
2022/08/01 09:05:11;;;;;;;0.32;0.32;;;22.80;99.90;;;;;;4127618;28;20085;-72
2022/08/01 09:07:14;;;;;;;1.98;0.35;;;23.00;99.90;;;;;;4128651;28;20442;-63
2022/08/01 09:09:15;;;;;;;0.40;0.30;;;23.30;99.90;;;;;;4127292;28;20034;-69
2022/08/01 09:11:16;;;;;;;0.50;0.35;;;23.50;99.90;;;;;;4128687;28;20466;-72
2022/08/01 09:13:17;;;;;;;0.55;0.43;;;23.60;99.90;;;;;;4127665;28;20034;-68
2022/08/01 09:15:44;;;;;;;1.38;0.30;;;23.80;99.90;;;;;;4128863;28;20081;-70
2022/08/01 09:17:45;;;;;;;0.30;0.30;;;23.80;99.90;;;;;;4127562;28;20038;-65
2022/08/01 09:19:52;;;;;;;0.57;0.38;;;23.70;99.90;;;;;;4128886;28;20110;-65
2022/08/01 09:22:05;;;;;;;1.10;0.40;;;23.60;99.90;;;;;;4127363;28;20051;-67
2022/08/01 09:24:16;;;;;;;2.30;0.47;;;23.60;99.90;;;;;;4128526;28;20022;-71
2022/08/01 09:26:20;;;;;;;1.13;0.50;;;23.60;99.90;;;;;;4127762;28;20113;-73
2022/08/01 09:28:28;;;;;;;9.65;1.30;;;23.10;99.90;;;;;;4128273;28;20077;-64
2022/08/01 09:30:38;;;;;;;5.43;0.88;;;23.00;99.90;;;;;;4127737;28;20042;-64
2022/08/01 09:32:54;;;;;;;;;;;22.50;99.90;;;;;;4128961;28;20046;-64
2022/08/01 09:34:55;;;;;;;1.35;0.50;;;22.20;99.90;;;;;;4127680;28;19909;-75
2022/08/01 09:37:02;;;;;;;1.52;0.38;;;22.10;99.90;;;;;;4128703;28;20038;-67
2022/08/01 09:39:13;;;;;;;0.55;0.40;;;22.40;99.90;;;;;;4127326;28;20073;-71
2022/08/01 09:41:14;;;;;;;0.38;0.30;;;22.70;99.90;;;;;;4128598;28;20475;-74
2022/08/01 09:43:16;;;;;;;1.30;0.68;;;22.90;99.90;;;;;;4127560;28;20035;-64
2022/08/01 09:45:33;;;;;;;0.65;0.35;;;22.90;99.90;;;;;;4128526;28;20376;-73
2022/08/01 09:47:38;;;;;;;1.80;0.50;;;23.00;99.90;;;;;;4127320;28;20046;-68
2022/08/01 09:49:41;;;;;;;1.17;0.38;;;23.00;99.90;;;;;;4128468;28;20046;-70
2022/08/01 09:51:42;;;;;;;0.30;0.22;;;23.00;99.90;;;;;;4126887;28;20096;-64
2022/08/01 09:53:46;;;;;;;1.52;0.47;;;23.20;99.90;;;;;;4129058;28;20050;-71
2022/08/01 09:55:50;;;;;;;1.23;0.38;;;23.30;99.90;;;;;;4130165;28;20026;-61
2022/08/01 09:57:57;;;;;;;1.05;0.20;;;23.40;99.90;;;;;;4131355;28;20454;-63
2022/08/01 10:00:01;;;;;;;0.65;0.30;;;23.40;99.90;;;;;;4130276;28;20085;-73
2022/08/01 10:02:02;;;;;;;0.30;0.30;;;23.30;99.90;;;;;;4131016;28;20080;-66
2022/08/01 10:04:29;;;;;;;0.35;0.30;;;23.30;99.90;;;;;;4130788;28;20080;-63
2022/08/01 10:06:30;;;;;;;2.83;0.55;;;23.20;99.90;;;;;;4132051;28;20050;-73
2022/08/01 10:08:48;;;;;;;0.52;0.30;;;23.40;99.90;;;;;;4130354;28;20479;-64
2022/08/01 10:11:08;;;;;;;0.50;0.47;;;23.60;99.90;;;;;;4130726;28;20093;-65
2022/08/01 10:13:10;;;;;;;;;;;23.80;99.90;;;;;;4130584;28;20092;-72
2022/08/01 10:15:15;;;;;;;4.90;0.60;;;23.70;99.90;;;;;;4131241;28;20367;-64
2022/08/01 10:17:19;;;;;;;0.73;0.47;;;23.70;99.90;;;;;;4129910;28;20018;-65
2022/08/01 10:19:25;;;;;;;1.23;0.30;;;23.60;99.90;;;;;;4130842;28;20019;-68
2022/08/01 10:21:27;;;;;;;1.10;0.32;;;23.60;99.90;;;;;;4130048;28;20050;-66
2022/08/01 10:23:34;;;;;;;2.33;0.25;;;23.60;99.90;;;;;;4130466;28;20375;-71
2022/08/01 10:25:40;;;;;;;1.42;0.30;;;23.70;99.90;;;;;;4130450;28;20096;-65
2022/08/01 10:27:45;;;;;;;0.60;0.30;;;23.80;99.90;;;;;;4130646;28;20116;-65
2022/08/01 10:29:55;;;;;;;0.40;0.30;;;23.80;99.90;;;;;;4129270;28;20046;-64
2022/08/01 10:31:56;;;;;;;0.70;0.63;;;23.80;99.90;;;;;;4130379;28;20034;-64
2022/08/01 10:33:58;;;;;;;2.47;0.50;;;23.90;99.90;;;;;;4130599;28;20391;-63
2022/08/01 10:35:59;;;;;;;1.20;0.60;;;24.10;99.90;;;;;;4130471;28;20089;-64
2022/08/01 10:38:01;;;;;;;0.30;0.30;;;24.20;99.90;;;;;;4130979;28;20026;-64
2022/08/01 10:40:04;;;;;;;2.85;0.20;;;24.10;99.90;;;;;;4129526;28;20422;-63
2022/08/01 10:42:09;;;;;;;0.98;0.20;;;24.10;99.90;;;;;;4130989;28;20085;-68
2022/08/01 10:44:10;;;;;;;1.95;0.30;;;24.20;99.90;;;;;;4129726;28;20364;-64
2022/08/01 10:46:12;;;;;;;0.63;0.20;;;24.10;99.90;;;;;;4130848;28;20030;-64